createdAt,value
2022-09-29T00:03:48.567Z,98344.16
2022-09-29T00:08:51.224Z,98343.28
2022-09-29T00:13:55.277Z,98338.19
2022-09-29T00:18:57.940Z,98343.41
2022-09-29T00:24:01.099Z,98342.50
2022-09-29T00:29:04.494Z,98358.88
2022-09-29T00:34:07.052Z,98352.88
2022-09-29T00:39:09.675Z,98371.72
2022-09-29T00:44:15.294Z,98376.97
2022-09-29T00:49:42.041Z,98384.81
2022-09-29T00:54:50.269Z,98377.94
2022-09-29T01:00:09.490Z,98382.88
2022-09-29T01:05:17.606Z,98382.03
2022-09-29T01:10:20.961Z,98382.59
2022-09-29T01:15:23.767Z,98370.72
2022-09-29T01:20:28.462Z,98368.00
2022-09-29T01:26:07.424Z,98380.09
2022-09-29T01:31:13.144Z,98383.66
2022-09-29T01:36:50.661Z,98393.34
2022-09-29T01:42:11.677Z,98401.03
2022-09-29T01:47:23.496Z,98405.84
2022-09-29T01:52:31.079Z,98400.69
2022-09-29T01:57:56.060Z,98403.97
2022-09-29T02:03:17.334Z,98399.28
2022-09-29T02:08:26.127Z,98411.56
2022-09-29T02:13:33.154Z,98407.16
2022-09-29T02:18:44.114Z,98403.50
2022-09-29T02:23:46.678Z,98398.56
2022-09-29T02:28:49.661Z,98406.97
2022-09-29T02:33:52.216Z,98402.66
2022-09-29T02:39:07.483Z,98408.66
2022-09-29T02:44:42.809Z,98406.06
2022-09-29T02:50:19.522Z,98413.09
2022-09-29T02:55:28.932Z,98412.41
2022-09-29T03:00:31.949Z,98397.13
2022-09-29T03:05:34.737Z,98417.38
2022-09-29T03:10:37.341Z,98413.44
2022-09-29T03:15:39.891Z,98420.09
2022-09-29T03:20:42.487Z,98433.94
2022-09-29T03:25:45.045Z,98418.41
2022-09-29T03:30:47.635Z,98436.63
2022-09-29T03:35:50.160Z,98445.25
2022-09-29T03:40:52.841Z,98436.69
2022-09-29T03:45:56.232Z,98451.06
2022-09-29T03:50:58.792Z,98459.47
2022-09-29T03:56:01.903Z,98454.25
2022-09-29T04:01:04.504Z,98456.66
2022-09-29T04:06:07.245Z,98454.06
2022-09-29T04:11:09.877Z,98444.81
2022-09-29T04:16:12.483Z,98449.72
2022-09-29T04:21:15.084Z,98436.16
2022-09-29T04:26:17.981Z,98456.53
2022-09-29T04:31:20.676Z,98460.34
2022-09-29T04:36:23.461Z,98459.81
2022-09-29T04:41:26.024Z,98459.81
2022-09-29T04:46:28.673Z,98468.91
2022-09-29T04:51:31.576Z,98463.31
2022-09-29T04:56:34.170Z,98457.03
2022-09-29T05:01:37.188Z,98450.53
2022-09-29T05:06:41.106Z,98460.88
2022-09-29T05:11:43.691Z,98486.56
2022-09-29T05:16:46.297Z,98493.75
2022-09-29T05:21:49.127Z,98486.56
2022-09-29T05:26:58.187Z,98507.16
2022-09-29T05:32:01.427Z,98504.38
2022-09-29T05:37:04.914Z,98490.84
2022-09-29T05:42:11.568Z,98491.94
2022-09-29T05:47:14.169Z,98501.84
2022-09-29T05:52:16.757Z,98503.66
2022-09-29T05:57:19.351Z,98510.31
2022-09-29T06:02:22.586Z,98513.88
2022-09-29T06:07:25.498Z,98505.09
2022-09-29T06:12:28.038Z,98512.84
2022-09-29T06:17:30.631Z,98492.22
2022-09-29T06:22:33.817Z,98502.84
2022-09-29T06:27:36.463Z,98495.56
2022-09-29T06:32:39.818Z,98510.50
2022-09-29T06:37:46.544Z,98511.75
2022-09-29T06:42:50.005Z,98510.03
2022-09-29T06:47:58.548Z,98518.50
2022-09-29T06:53:04.276Z,98544.38
2022-09-29T06:58:07.317Z,98532.28
2022-09-29T07:03:10.221Z,98534.88
2022-09-29T07:08:13.687Z,98548.66
2022-09-29T07:13:16.538Z,98546.66
2022-09-29T07:18:19.123Z,98538.28
2022-09-29T07:23:21.711Z,98542.63
2022-09-29T07:28:24.846Z,98528.16
2022-09-29T07:33:37.922Z,98549.66
2022-09-29T07:38:41.965Z,98556.41
2022-09-29T07:43:44.674Z,98555.19
2022-09-29T07:48:47.752Z,98558.75
2022-09-29T07:53:51.220Z,98583.31
2022-09-29T07:58:53.852Z,98576.63
2022-09-29T08:03:56.480Z,98588.38
2022-09-29T08:09:05.154Z,98592.69
2022-09-29T08:14:09.795Z,98602.75
2022-09-29T08:24:20.060Z,98621.06
2022-09-29T08:29:22.650Z,98624.09
2022-09-29T08:34:25.490Z,98608.31
2022-09-29T08:39:28.290Z,98631.47
2022-09-29T08:44:46.894Z,98614.16
2022-09-29T08:49:58.424Z,98623.84
2022-09-29T08:55:22.204Z,98631.78
2022-09-29T09:00:46.621Z,98634.09
2022-09-29T09:06:03.757Z,98630.19
2022-09-29T09:11:27.907Z,98659.47
2022-09-29T09:16:53.151Z,98653.13
2022-09-29T09:22:27.958Z,98664.50
2022-09-29T09:27:47.935Z,98666.09
2022-09-29T09:32:59.520Z,98672.16
2022-09-29T09:38:10.170Z,98665.41
2022-09-29T09:43:20.722Z,98680.13
2022-09-29T09:48:44.019Z,98671.59
2022-09-29T09:53:52.819Z,98662.09
2022-09-29T09:59:06.270Z,98582.59
2022-09-29T10:04:12.888Z,98664.63
2022-09-29T10:09:16.374Z,98668.63
2022-09-29T10:14:28.032Z,98683.19
2022-09-29T10:19:50.992Z,98697.31
2022-09-29T10:25:05.707Z,98706.78
2022-09-29T10:30:22.654Z,98713.50
2022-09-29T10:35:32.248Z,98722.94
2022-09-29T10:40:35.721Z,98736.63
2022-09-29T10:45:48.896Z,98717.78
2022-09-29T10:56:22.521Z,98749.09
2022-09-29T11:01:27.871Z,98751.41
2022-09-29T11:06:35.706Z,98732.13
2022-09-29T11:11:40.876Z,98772.88
2022-09-29T11:16:56.928Z,98768.28
2022-09-29T11:22:11.874Z,98772.69
2022-09-29T11:27:26.434Z,98761.03
2022-09-29T11:32:58.333Z,98774.47
2022-09-29T11:38:16.659Z,98768.72
2022-09-29T11:43:48.094Z,98775.84
2022-09-29T11:49:23.334Z,98778.31
2022-09-29T11:54:47.984Z,98786.81
2022-09-29T12:00:07.689Z,98799.69
2022-09-29T12:05:28.528Z,98808.59
2022-09-29T12:11:13.120Z,98807.06
2022-09-29T12:16:30.587Z,98788.88
2022-09-29T12:21:40.820Z,98805.47
2022-09-29T12:26:46.670Z,98797.66
2022-09-29T12:31:52.648Z,98818.16
2022-09-29T12:37:17.677Z,98816.63
2022-09-29T12:42:23.089Z,98820.53
2022-09-29T12:47:52.359Z,98829.00
2022-09-29T12:58:53.262Z,98842.47
2022-09-29T13:04:29.806Z,98838.59
2022-09-29T13:09:41.549Z,98844.00
2022-09-29T13:14:46.884Z,98850.41
2022-09-29T13:20:02.029Z,98855.50
2022-09-29T13:25:45.055Z,98858.13
2022-09-29T13:30:48.275Z,98861.25
2022-09-29T13:35:52.898Z,98869.00
2022-09-29T13:41:17.990Z,98866.28
2022-09-29T13:46:30.090Z,98872.22
2022-09-29T13:51:52.054Z,98879.34
2022-09-29T13:57:12.716Z,98886.59
2022-09-29T14:02:30.758Z,98890.38
2022-09-29T14:07:49.611Z,98893.81
2022-09-29T14:13:05.771Z,98898.00
2022-09-29T14:18:20.236Z,98894.44
2022-09-29T14:23:49.945Z,98894.44
2022-09-29T14:28:54.893Z,98901.44
2022-09-29T14:34:02.549Z,98903.63
2022-09-29T14:44:54.340Z,98917.03
2022-09-29T14:50:21.435Z,98928.25
2022-09-29T14:55:49.518Z,98923.06
2022-09-29T15:00:58.266Z,98932.66
2022-09-29T15:06:11.919Z,98942.81
2022-09-29T15:11:51.514Z,98946.81
2022-09-29T15:17:20.838Z,98918.66
2022-09-29T15:22:38.581Z,98958.72
2022-09-29T15:27:41.238Z,98961.38
2022-09-29T15:32:46.979Z,98982.47
2022-09-29T15:38:28.125Z,98979.22
2022-09-29T15:43:55.492Z,98985.03
2022-09-29T15:49:25.197Z,98989.03
2022-09-29T15:54:39.956Z,98989.91
2022-09-29T15:59:54.330Z,99008.13
2022-09-29T16:05:00.475Z,99004.13
2022-09-29T16:10:15.789Z,99016.94
2022-09-29T16:15:46.459Z,99019.53
2022-09-29T16:20:49.549Z,99028.44
2022-09-29T16:26:07.409Z,99031.91
2022-09-29T16:31:22.296Z,99038.28
2022-09-29T16:36:28.043Z,99042.03
2022-09-29T16:41:36.638Z,99047.28
2022-09-29T16:46:58.937Z,99048.38
2022-09-29T16:52:27.049Z,99062.03
2022-09-29T16:57:31.564Z,99058.69
2022-09-29T17:02:34.233Z,99057.94
2022-09-29T17:07:44.450Z,99067.47
2022-09-29T17:12:47.745Z,99077.78
2022-09-29T17:17:51.375Z,99071.50
2022-09-29T17:22:54.447Z,99082.75
2022-09-29T17:28:12.482Z,99079.47
2022-09-29T17:33:17.225Z,99098.78
2022-09-29T17:38:20.020Z,99092.22
2022-09-29T17:43:24.440Z,99101.56
2022-09-29T17:48:28.493Z,99091.03
2022-09-29T17:53:31.044Z,99088.78
2022-09-29T17:58:33.645Z,99093.31
2022-09-29T18:03:39.838Z,99085.94
2022-09-29T18:08:42.881Z,99093.72
2022-09-29T18:13:45.762Z,99091.13
2022-09-29T18:18:48.909Z,99091.84
2022-09-29T18:23:51.506Z,99099.56
2022-09-29T18:28:55.004Z,99107.28
2022-09-29T18:33:57.647Z,99103.09
2022-09-29T18:39:00.245Z,99120.19
2022-09-29T18:44:12.104Z,99127.88
2022-09-29T18:49:15.232Z,99129.66
2022-09-29T18:54:18.070Z,99139.97
2022-09-29T18:59:20.790Z,99144.94
2022-09-29T19:04:24.392Z,99144.97
2022-09-29T19:09:27.013Z,99126.25
2022-09-29T19:14:33.807Z,99156.41
2022-09-29T19:19:36.361Z,99150.47
2022-09-29T19:24:39.470Z,99151.31
2022-09-29T19:29:42.226Z,99174.44
2022-09-29T19:34:44.941Z,99160.81
2022-09-29T19:39:47.739Z,99162.66
2022-09-29T19:44:50.447Z,99176.41
2022-09-29T19:50:12.958Z,99160.81
2022-09-29T19:55:15.736Z,99166.84
2022-09-29T20:00:21.930Z,99164.34
2022-09-29T20:05:24.488Z,99176.88
2022-09-29T20:10:29.123Z,99168.47
2022-09-29T20:15:31.777Z,99173.72
2022-09-29T20:20:35.431Z,99161.66
2022-09-29T20:25:39.353Z,99131.88
2022-09-29T20:30:42.164Z,99154.22
2022-09-29T20:35:44.703Z,99150.84
2022-09-29T20:40:49.212Z,99169.66
2022-09-29T20:45:59.594Z,99166.41
2022-09-29T20:51:04.279Z,99148.63
2022-09-29T20:56:09.368Z,99166.56
2022-09-29T21:01:14.202Z,99159.56
2022-09-29T21:06:21.061Z,99180.91
2022-09-29T21:11:23.788Z,99190.31
2022-09-29T21:22:56.054Z,99180.78
2022-09-29T21:33:25.682Z,99206.44
2022-09-29T21:38:35.259Z,99214.97
2022-09-29T21:43:38.142Z,99213.91
2022-09-29T21:48:44.040Z,99215.69
2022-09-29T21:53:46.757Z,99208.03
2022-09-29T21:58:52.092Z,99218.53
2022-09-29T22:03:56.577Z,99206.78
2022-09-29T22:09:00.712Z,99217.38
2022-09-29T22:14:03.973Z,99202.84
2022-09-29T22:19:23.712Z,99228.75
2022-09-29T22:24:27.876Z,99234.53
2022-09-29T22:29:30.633Z,99222.50
2022-09-29T22:34:33.478Z,99187.44
2022-09-29T22:39:36.164Z,99236.88
2022-09-29T22:44:38.796Z,99232.53
2022-09-29T22:49:41.426Z,99235.09
2022-09-29T22:54:44.619Z,99225.66
2022-09-29T22:59:47.298Z,99223.06
2022-09-29T23:04:50.007Z,99228.09
2022-09-29T23:09:52.747Z,99239.31
2022-09-29T23:14:55.922Z,99239.31
2022-09-29T23:20:03.057Z,99234.97
2022-09-29T23:25:06.673Z,99241.75
2022-09-29T23:30:10.005Z,99233.13
2022-09-29T23:35:12.696Z,99242.56
2022-09-29T23:40:15.537Z,99239.91
2022-09-29T23:45:18.912Z,99236.47
2022-09-29T23:50:22.049Z,99253.72
2022-09-29T23:55:24.692Z,99247.88
